Terminal Aerodrome Forecast
Issued by NWS

Current Version | Previous Version | Text Only | Print | Product List | Glossary Off
Versions: 1 2 3 4 5 6 7 8 9 10 11 12 13 14 15 16 17 18 19

000
FTUS41 KPBZ 232305 AAA
TAFHLG
TAF AMD
KHLG 232305Z 2323/2418 30014G20KT P6SM OVC070
     FM240000 30008KT P6SM BKN040
     FM241400 30011G20KT P6SM FEW050=

USA.gov is the U.S. government's official web portal to all federal, state and local government web resources and services.